Time;durP1;ratioP1;P1;durP2;ratioP2;P2;SDS_P1;SDS_P2;PMS_P1;PMS_P2;Temp;Humidity;BMP_temperature;BMP_pressure;BME280_temperature;BME280_humidity;BME280_pressure;Samples;Min_cycle;Max_cycle;Signal;HPM_P1;HPM_P2
2022/06/24 00:00:13;;;;;;;;;2.80;1.80;29.70;99.90;;;;;;4971917;28;8842;-44
2022/06/24 00:02:50;;;;;;;;;1.00;1.00;29.70;99.90;;;;;;4973863;28;8860;-45
2022/06/24 03:42:32;;;;;;;;;3.50;3.50;26.50;99.90;;;;;;5032159;27;13013;-45
2022/06/24 03:45:06;;;;;;;;;4.00;4.00;25.80;99.90;;;;;;5021650;27;9557;-43
2022/06/24 03:47:37;;;;;;;;;4.50;4.50;25.80;99.90;;;;;;5023851;27;8849;-44
2022/06/24 03:50:08;;;;;;;;;5.00;5.00;25.80;99.90;;;;;;5023533;27;8917;-43
2022/06/24 03:52:38;;;;;;;;;2.50;2.50;25.80;99.90;;;;;;5020441;27;8844;-44
2022/06/24 03:55:10;;;;;;;;;4.00;4.00;25.70;99.90;;;;;;5030277;27;8823;-44
2022/06/24 03:57:41;;;;;;;;;4.50;3.50;25.60;99.90;;;;;;5021232;27;10023;-43
2022/06/24 04:00:13;;;;;;;;;4.25;4.25;25.60;99.90;;;;;;5023635;27;8827;-44
2022/06/24 04:02:44;;;;;;;;;3.25;3.25;25.50;99.90;;;;;;5019601;27;8849;-47
2022/06/24 04:05:18;;;;;;;;;5.00;3.75;25.30;99.90;;;;;;5027107;28;9569;-46
2022/06/24 04:07:47;;;;;;;;;2.75;2.75;25.20;99.90;;;;;;5022676;27;8923;-45
2022/06/24 04:10:18;;;;;;;;;4.75;4.75;25.20;99.90;;;;;;5024539;27;8869;-49
2022/06/24 04:12:48;;;;;;;;;2.50;2.50;25.20;99.90;;;;;;5027741;28;8861;-43
2022/06/24 04:15:18;;;;;;;;;2.50;2.00;25.20;99.90;;;;;;5034950;27;8850;-46
2022/06/24 04:17:50;;;;;;;;;3.00;3.00;25.00;99.90;;;;;;5028174;28;8857;-43
2022/06/24 04:20:22;;;;;;;;;4.00;4.00;25.10;99.90;;;;;;5038882;27;8832;-42
2022/06/24 04:22:52;;;;;;;;;3.75;3.75;25.10;99.90;;;;;;5048308;27;8844;-45
2022/06/24 04:25:23;;;;;;;;;4.50;4.50;25.00;99.90;;;;;;5030028;27;8841;-45
2022/06/24 04:27:54;;;;;;;;;4.25;4.25;24.90;99.90;;;;;;5023305;28;8859;-44
2022/06/24 04:30:24;;;;;;;;;6.00;4.25;24.90;99.90;;;;;;5119102;27;8866;-43
2022/06/24 04:32:56;;;;;;;;;4.00;4.00;24.80;99.90;;;;;;5029971;28;8841;-48
2022/06/24 04:35:27;;;;;;;;;5.75;4.00;24.80;99.90;;;;;;5032099;27;8830;-44
2022/06/24 04:37:58;;;;;;;;;3.50;3.50;24.80;99.90;;;;;;5034790;27;8857;-46
2022/06/24 04:40:29;;;;;;;;;4.25;4.25;24.60;99.90;;;;;;5031834;27;8890;-48
2022/06/24 04:42:59;;;;;;;;;4.50;4.50;24.60;99.90;;;;;;5023972;27;8830;-46
2022/06/24 04:45:30;;;;;;;;;5.00;5.00;24.60;99.90;;;;;;5011845;28;8837;-45
2022/06/24 04:48:02;;;;;;;;;6.25;5.25;24.60;99.90;;;;;;5016044;28;9021;-46
2022/06/24 04:50:33;;;;;;;;;5.25;5.25;24.60;99.90;;;;;;5016329;28;8862;-46
2022/06/24 04:53:03;;;;;;;;;4.25;4.25;24.50;99.90;;;;;;5008051;27;8831;-45
2022/06/24 04:55:34;;;;;;;;;4.50;4.50;24.30;99.90;;;;;;5017373;28;8870;-45
2022/06/24 04:58:04;;;;;;;;;3.25;3.00;24.10;99.90;;;;;;5016215;28;8877;-41
2022/06/24 05:00:35;;;;;;;;;4.50;3.00;24.10;99.90;;;;;;5017202;28;8864;-42
2022/06/24 05:03:06;;;;;;;;;4.75;4.75;24.10;99.90;;;;;;5018523;28;9786;-44
2022/06/24 05:05:37;;;;;;;;;3.75;3.25;24.00;99.90;;;;;;5010724;28;8895;-44
2022/06/24 05:08:07;;;;;;;;;1.00;1.00;24.10;99.90;;;;;;5015565;28;8852;-44
2022/06/24 05:10:38;;;;;;;;;3.25;3.25;24.10;99.90;;;;;;5025654;27;8863;-43
2022/06/24 05:13:09;;;;;;;;;3.00;3.00;24.00;99.90;;;;;;5016959;28;8837;-46
2022/06/24 05:15:39;;;;;;;;;5.00;5.00;23.90;99.90;;;;;;5023501;28;8857;-42
2022/06/24 05:18:09;;;;;;;;;3.00;3.00;23.80;99.90;;;;;;5014047;28;8987;-44
2022/06/24 05:20:39;;;;;;;;;2.75;2.75;23.90;99.90;;;;;;5018587;28;9614;-44
2022/06/24 05:23:10;;;;;;;;;5.00;5.00;23.90;99.90;;;;;;5018415;28;8865;-42
2022/06/24 05:25:40;;;;;;;;;4.00;4.00;23.90;99.90;;;;;;5020194;28;8851;-43
2022/06/24 05:28:15;;;;;;;;;4.25;4.25;23.80;99.90;;;;;;5013457;28;8838;-42
2022/06/24 05:30:45;;;;;;;;;5.00;5.00;23.80;99.90;;;;;;5015906;27;8846;-42
2022/06/24 05:33:19;;;;;;;;;5.25;5.25;23.80;99.90;;;;;;5020950;28;8858;-44
2022/06/24 05:35:55;;;;;;;;;4.25;3.00;23.80;99.90;;;;;;5011048;28;8889;-44
2022/06/24 05:38:29;;;;;;;;;5.00;4.00;23.70;99.90;;;;;;5019084;27;9623;-46
2022/06/24 05:41:01;;;;;;;;;4.00;4.00;23.60;99.90;;;;;;5015175;28;8844;-47
2022/06/24 05:43:32;;;;;;;;;4.75;4.75;23.60;99.90;;;;;;5014501;27;8896;-43
2022/06/24 05:46:03;;;;;;;;;3.00;3.00;23.60;99.90;;;;;;5015703;28;9559;-43
2022/06/24 05:48:33;;;;;;;;;4.25;2.00;23.50;99.90;;;;;;5012243;28;8862;-45
2022/06/24 05:51:11;;;;;;;;;4.50;4.50;23.50;99.90;;;;;;5027711;28;8834;-44
2022/06/24 05:56:32;;;;;;;;;3.50;3.50;23.50;99.90;;;;;;5017896;28;8836;-46
2022/06/24 05:59:04;;;;;;;;;5.00;5.00;23.30;99.90;;;;;;5018993;27;9486;-44
2022/06/24 06:01:35;;;;;;;;;2.25;2.25;23.30;99.90;;;;;;4997409;28;8913;-42
2022/06/24 06:04:08;;;;;;;;;4.75;4.00;23.30;99.90;;;;;;5017423;28;8864;-46
2022/06/24 06:06:40;;;;;;;;;4.00;3.25;23.30;99.90;;;;;;5014631;28;8860;-45
2022/06/24 06:09:11;;;;;;;;;3.75;3.75;23.20;99.90;;;;;;5012988;27;8831;-42
2022/06/24 06:11:41;;;;;;;;;4.00;4.00;23.10;99.90;;;;;;5012057;28;8852;-45
2022/06/24 06:14:12;;;;;;;;;2.00;2.00;23.10;99.90;;;;;;5032920;28;8864;-48
2022/06/24 06:16:47;;;;;;;;;3.75;3.75;23.10;99.90;;;;;;5032768;28;8857;-44
2022/06/24 06:19:17;;;;;;;;;4.00;4.00;23.00;99.90;;;;;;5018936;28;8860;-43
2022/06/24 06:21:48;;;;;;;;;5.00;3.00;23.00;99.90;;;;;;5017667;28;8846;-44
2022/06/24 06:24:18;;;;;;;;;3.00;3.00;22.90;99.90;;;;;;5021859;28;8828;-43
2022/06/24 06:26:49;;;;;;;;;4.75;4.00;22.90;99.90;;;;;;5017617;28;8857;-42
2022/06/24 06:29:22;;;;;;;;;4.00;4.00;22.80;99.90;;;;;;5018322;28;8832;-43
2022/06/24 06:31:53;;;;;;;;;4.00;4.00;22.80;99.90;;;;;;5021038;27;9651;-44
2022/06/24 06:34:23;;;;;;;;;2.25;2.25;22.80;99.90;;;;;;5017852;28;8860;-44
2022/06/24 06:36:54;;;;;;;;;2.00;1.75;22.80;99.90;;;;;;5021524;27;8832;-45
2022/06/24 06:39:24;;;;;;;;;3.00;3.00;22.70;99.90;;;;;;5016038;28;8870;-44
2022/06/24 06:41:55;;;;;;;;;3.75;3.75;22.70;99.90;;;;;;5013485;28;8917;-46
2022/06/24 06:44:25;;;;;;;;;4.00;4.00;22.60;99.90;;;;;;5017063;28;8844;-45
2022/06/24 06:46:56;;;;;;;;;3.00;3.00;22.60;99.90;;;;;;5012763;28;8830;-43
2022/06/24 06:49:28;;;;;;;;;2.75;2.75;22.50;99.90;;;;;;5016058;28;9592;-43
2022/06/24 06:52:03;;;;;;;;;3.00;3.00;22.50;99.90;;;;;;5012877;28;8866;-44
2022/06/24 06:54:32;;;;;;;;;3.00;3.00;22.50;99.90;;;;;;5019604;28;8834;-45
2022/06/24 06:57:02;;;;;;;;;1.75;1.75;22.40;99.90;;;;;;5008245;28;8842;-43
2022/06/24 06:59:32;;;;;;;;;4.00;4.00;22.40;99.90;;;;;;5011735;28;8843;-44
2022/06/24 07:02:02;;;;;;;;;3.00;3.00;22.50;99.90;;;;;;5010786;28;8865;-43
2022/06/24 07:04:33;;;;;;;;;4.00;3.50;22.40;99.90;;;;;;5014380;27;8861;-45
2022/06/24 07:07:04;;;;;;;;;3.00;3.00;22.40;99.90;;;;;;5016254;28;8847;-46
2022/06/24 07:09:35;;;;;;;;;3.25;3.25;22.40;99.90;;;;;;5028760;27;8874;-45
2022/06/24 07:12:06;;;;;;;;;2.75;2.75;22.30;99.90;;;;;;5015713;28;8847;-43
2022/06/24 07:14:43;;;;;;;;;3.00;3.00;22.40;99.90;;;;;;5023117;27;9608;-42
2022/06/24 07:17:20;;;;;;;;;3.00;3.00;22.40;99.90;;;;;;5016367;28;8843;-44
2022/06/24 07:19:49;;;;;;;;;4.00;3.00;22.40;99.90;;;;;;5009464;28;8825;-44
2022/06/24 07:22:29;;;;;;;;;3.75;3.75;22.40;99.90;;;;;;5017482;28;8878;-45
2022/06/24 07:25:01;;;;;;;;;3.00;3.00;22.40;99.90;;;;;;5017839;28;8846;-45
2022/06/24 07:27:30;;;;;;;;;2.75;2.75;22.40;99.90;;;;;;5017201;28;9565;-41
2022/06/24 07:30:05;;;;;;;;;4.33;3.00;22.40;99.90;;;;;;5014807;27;8877;-42
2022/06/24 07:32:35;;;;;;;;;3.00;3.00;22.40;99.90;;;;;;5014234;28;9020;-42
2022/06/24 07:35:06;;;;;;;;;3.50;3.50;22.30;99.90;;;;;;5009256;28;9786;-44
2022/06/24 07:37:55;;;;;;;;;4.00;4.00;22.30;99.90;;;;;;5016670;28;8845;-42
2022/06/24 07:40:29;;;;;;;;;3.50;3.50;22.20;99.90;;;;;;5009502;28;9434;-46
2022/06/24 07:43:03;;;;;;;;;3.67;3.67;22.20;99.90;;;;;;5008446;28;8862;-42
2022/06/24 07:45:33;;;;;;;;;6.00;4.33;22.20;99.90;;;;;;5011677;28;9034;-44
2022/06/24 07:48:04;;;;;;;;;4.33;4.33;22.20;99.90;;;;;;5010896;28;9369;-43
2022/06/24 07:50:36;;;;;;;;;3.33;3.33;22.10;99.90;;;;;;5008985;28;9074;-42
2022/06/24 07:53:06;;;;;;;;;5.25;5.25;22.10;99.90;;;;;;4992249;28;8969;-43
2022/06/24 07:58:27;;;;;;;;;4.00;4.00;22.10;99.90;;;;;;5007299;27;8842;-43
2022/06/24 08:01:01;;;;;;;;;4.00;4.00;22.00;99.90;;;;;;5008174;28;8943;-43
2022/06/24 08:03:32;;;;;;;;;5.00;3.33;22.00;99.90;;;;;;5010591;28;8994;-43
2022/06/24 08:06:02;;;;;;;;;3.00;3.00;22.00;99.90;;;;;;5013355;28;9076;-42
2022/06/24 08:08:32;;;;;;;;;4.33;4.33;22.00;99.90;;;;;;5020838;28;8981;-44
2022/06/24 08:11:02;;;;;;;;;3.33;3.33;22.00;99.90;;;;;;5011133;28;9018;-44
2022/06/24 08:13:39;;;;;;;;;5.00;5.00;21.90;99.90;;;;;;5014518;28;9176;-44
2022/06/24 08:16:10;;;;;;;;;3.67;3.67;21.90;99.90;;;;;;5017516;28;8997;-42
2022/06/24 08:18:41;;;;;;;;;5.00;3.67;21.80;99.90;;;;;;5038580;27;8956;-41
2022/06/24 08:21:12;;;;;;;;;3.75;3.75;21.90;99.90;;;;;;5019130;27;8936;-41
2022/06/24 08:23:44;;;;;;;;;4.00;4.00;21.80;99.90;;;;;;5015440;28;8845;-46
2022/06/24 08:26:26;;;;;;;;;6.67;6.67;21.80;99.90;;;;;;4922187;28;8984;-44
2022/06/24 08:28:59;;;;;;;;;2.67;2.67;21.80;99.90;;;;;;4925092;28;8955;-48
2022/06/24 08:31:28;;;;;;;;;2.00;2.00;21.80;99.90;;;;;;4922264;28;8954;-50
2022/06/24 08:33:59;;;;;;;;;3.00;3.00;21.80;99.90;;;;;;4924012;28;9021;-49
2022/06/24 08:36:30;;;;;;;;;3.33;3.33;21.70;99.90;;;;;;4921940;28;9697;-49
2022/06/24 08:38:59;;;;;;;;;3.33;3.33;21.70;99.90;;;;;;4927768;28;9193;-46
2022/06/24 08:41:29;;;;;;;;;3.00;3.00;21.70;99.90;;;;;;4925889;28;9134;-47
2022/06/24 08:44:00;;;;;;;;;3.00;3.00;21.60;99.90;;;;;;4926177;28;9027;-49
2022/06/24 08:46:30;;;;;;;;;3.33;3.33;21.70;99.90;;;;;;4924103;28;9103;-48
2022/06/24 08:49:01;;;;;;;;;4.00;4.00;21.70;99.90;;;;;;4925830;28;8947;-49
2022/06/24 08:51:33;;;;;;;;;3.25;3.25;21.60;99.90;;;;;;4928860;28;8920;-45
2022/06/24 08:54:04;;;;;;;;;4.00;4.00;21.60;99.90;;;;;;4927482;28;8881;-47
2022/06/24 08:56:54;;;;;;;;;3.00;3.00;21.60;99.90;;;;;;4928627;28;8939;-49
2022/06/24 08:59:28;;;;;;;;;3.00;3.00;21.60;99.90;;;;;;4925278;28;9875;-46
2022/06/24 09:01:58;;;;;;;;;4.00;4.00;21.50;99.90;;;;;;4926126;28;8976;-47
2022/06/24 09:04:28;;;;;;;;;4.00;4.00;21.50;99.90;;;;;;4929469;28;9105;-50
2022/06/24 09:07:02;;;;;;;;;3.25;2.75;21.50;99.90;;;;;;4921820;28;9136;-48
2022/06/24 09:09:31;;;;;;;;;4.33;3.00;21.50;99.90;;;;;;4924574;28;8824;-47
2022/06/24 09:12:02;;;;;;;;;4.00;4.00;21.40;99.90;;;;;;4925275;28;8970;-47
2022/06/24 09:14:49;;;;;;;;;5.00;5.00;21.40;99.90;;;;;;4922802;28;9111;-51
2022/06/24 09:17:31;;;;;;;;;3.00;3.00;21.40;99.90;;;;;;4922447;28;9122;-45
2022/06/24 09:20:12;;;;;;;;;5.00;5.00;21.40;99.90;;;;;;4924528;28;8995;-48
2022/06/24 09:23:09;;;;;;;;;4.33;3.00;21.30;99.90;;;;;;4923140;28;9120;-47
2022/06/24 09:25:46;;;;;;;;;3.00;3.00;21.30;99.90;;;;;;4920498;28;9203;-46
2022/06/24 09:28:31;;;;;;;;;4.00;4.00;21.30;99.90;;;;;;4927865;28;9126;-46
2022/06/24 09:31:07;;;;;;;;;3.33;3.33;21.30;99.90;;;;;;4923760;28;9402;-49
2022/06/24 09:33:39;;;;;;;;;4.00;4.00;21.40;99.90;;;;;;4924428;28;9300;-49
2022/06/24 09:36:13;;;;;;;;;5.67;5.67;21.40;99.90;;;;;;4921940;28;9339;-50
2022/06/24 09:38:57;;;;;;;;;5.33;5.33;21.30;99.90;;;;;;4921058;28;9229;-47
2022/06/24 09:41:29;;;;;;;;;3.00;3.00;21.30;99.90;;;;;;4921739;28;9323;-47
2022/06/24 09:44:03;;;;;;;;;3.33;3.00;21.30;99.90;;;;;;4922390;28;9114;-50
2022/06/24 09:46:34;;;;;;;;;2.00;2.00;21.30;99.90;;;;;;4924420;28;9287;-48
2022/06/24 09:49:07;;;;;;;;;2.00;2.00;21.20;99.90;;;;;;4923581;28;9389;-45
2022/06/24 09:51:39;;;;;;;;;3.00;3.00;21.20;99.90;;;;;;4923863;28;9416;-48
2022/06/24 09:54:11;;;;;;;;;4.00;4.00;21.20;99.90;;;;;;4918908;28;9269;-47
2022/06/24 09:56:41;;;;;;;;;2.67;2.67;21.10;99.90;;;;;;4923377;28;9255;-50
2022/06/24 10:02:04;;;;;;;;;11.33;8.00;21.00;99.90;;;;;;4921227;28;9263;-51
2022/06/24 10:04:38;;;;;;;;;12.00;11.00;21.00;99.90;;;;;;4927156;28;9512;-49
2022/06/24 10:07:08;;;;;;;;;7.00;7.00;21.00;99.90;;;;;;4922158;28;9457;-47
2022/06/24 10:09:39;;;;;;;;;4.00;3.67;20.90;99.90;;;;;;4928733;28;9272;-46
2022/06/24 10:12:14;;;;;;;;;3.33;3.33;20.90;99.90;;;;;;4927706;28;9322;-49
2022/06/24 10:14:45;;;;;;;;;3.00;3.00;20.90;99.90;;;;;;4926909;28;9332;-50
2022/06/24 10:17:17;;;;;;;;;4.00;4.00;20.90;99.90;;;;;;4924718;28;9268;-49
2022/06/24 10:19:48;;;;;;;;;2.00;2.00;20.80;99.90;;;;;;4923616;28;9390;-48
2022/06/24 10:22:38;;;;;;;;;3.00;3.00;20.80;99.90;;;;;;4923225;28;9157;-49
2022/06/24 10:25:07;;;;;;;;;4.00;4.00;20.80;99.90;;;;;;4921093;28;10082;-48
2022/06/24 10:27:59;;;;;;;;;1.00;1.00;20.80;99.90;;;;;;4921584;28;9480;-47
2022/06/24 10:30:56;;;;;;;;;2.67;2.67;20.70;99.90;;;;;;4924414;28;9269;-49
2022/06/24 10:33:31;;;;;;;;;3.00;3.00;20.70;99.90;;;;;;4919002;28;9303;-47
2022/06/24 10:36:07;;;;;;;;;4.00;4.00;20.70;99.90;;;;;;4923072;28;9371;-49
2022/06/24 10:38:45;;;;;;;;;2.00;2.00;20.60;99.90;;;;;;4924289;28;9368;-48
2022/06/24 10:41:15;;;;;;;;;4.67;3.00;20.60;99.90;;;;;;4919547;28;9483;-47
2022/06/24 10:43:46;;;;;;;;;2.00;2.00;20.60;99.90;;;;;;4926213;28;9337;-49
2022/06/24 10:46:18;;;;;;;;;2.00;2.00;20.60;99.90;;;;;;4927617;28;9245;-50
2022/06/24 10:48:55;;;;;;;;;3.00;3.00;20.50;99.90;;;;;;4923991;28;9374;-48
2022/06/24 10:51:28;;;;;;;;;3.67;3.00;20.50;99.90;;;;;;4923418;28;9372;-46
2022/06/24 10:54:06;;;;;;;;;3.00;3.00;20.50;99.90;;;;;;4932809;28;9512;-47
2022/06/24 10:56:44;;;;;;;;;5.00;5.00;20.50;99.90;;;;;;4924360;28;9223;-49
2022/06/24 10:59:18;;;;;;;;;4.00;4.00;20.40;99.90;;;;;;4927209;28;10155;-47
2022/06/24 11:01:50;;;;;;;;;2.00;2.00;20.40;99.90;;;;;;4923971;28;9398;-47
2022/06/24 11:04:28;;;;;;;;;2.33;2.33;20.40;99.90;;;;;;4927099;28;9191;-48
2022/06/24 11:07:18;;;;;;;;;3.00;3.00;20.40;99.90;;;;;;4932550;28;9272;-48
2022/06/24 11:09:48;;;;;;;;;3.00;3.00;20.40;99.90;;;;;;4921354;28;10182;-50
2022/06/24 11:12:32;;;;;;;;;4.00;3.00;20.30;99.90;;;;;;4926329;28;9357;-47
2022/06/24 11:15:04;;;;;;;;;2.00;2.00;20.30;99.90;;;;;;4928063;28;9283;-50
2022/06/24 11:17:44;;;;;;;;;3.00;3.00;20.20;99.90;;;;;;4925063;28;9366;-50
2022/06/24 11:20:15;;;;;;;;;4.00;4.00;20.20;99.90;;;;;;4925605;28;9520;-48
2022/06/24 11:22:46;;;;;;;;;6.25;6.25;20.20;99.90;;;;;;4920056;28;9649;-51
2022/06/24 11:25:20;;;;;;;;;3.33;3.00;20.10;99.90;;;;;;4920077;28;9744;-47
2022/06/24 11:27:50;;;;;;;;;3.00;3.00;20.10;99.90;;;;;;4923595;28;9421;-48
2022/06/24 11:30:20;;;;;;;;;3.67;3.67;20.00;99.90;;;;;;4918004;28;9669;-46
2022/06/24 11:32:57;;;;;;;;;3.00;3.00;20.00;99.90;;;;;;4927166;28;9382;-49
2022/06/24 11:35:28;;;;;;;;;2.67;2.67;20.10;99.90;;;;;;4919005;28;9476;-49
2022/06/24 11:37:59;;;;;;;;;1.67;1.67;20.10;99.90;;;;;;4929366;28;9573;-50
2022/06/24 11:40:33;;;;;;;;;3.67;3.00;20.10;99.90;;;;;;4920868;28;9448;-47
2022/06/24 11:43:11;;;;;;;;;2.00;2.00;20.00;99.90;;;;;;4929841;28;9549;-49
2022/06/24 11:45:45;;;;;;;;;3.00;3.00;20.00;99.90;;;;;;4920283;28;9483;-48
2022/06/24 11:48:25;;;;;;;;;3.75;2.75;20.00;99.90;;;;;;4923116;28;9545;-45
2022/06/24 11:50:55;;;;;;;;;2.00;2.00;19.90;99.90;;;;;;4921267;28;10464;-50
2022/06/24 11:53:27;;;;;;;;;2.67;2.67;20.00;99.90;;;;;;4928374;28;10346;-48
2022/06/24 11:55:58;;;;;;;;;3.75;3.75;19.90;99.90;;;;;;4929540;28;9573;-50
2022/06/24 11:58:35;;;;;;;;;2.25;2.25;19.90;99.90;;;;;;4925394;28;10269;-48
2022/06/24 12:01:05;;;;;;;;;2.00;2.00;19.90;99.90;;;;;;4924239;28;9649;-47
2022/06/24 12:03:35;;;;;;;;;3.75;2.25;19.80;99.90;;;;;;4923281;28;9561;-48
2022/06/24 12:06:09;;;;;;;;;2.50;2.50;19.80;99.90;;;;;;4927886;28;9626;-46
2022/06/24 12:08:39;;;;;;;;;2.50;2.50;19.80;99.90;;;;;;4929290;28;9709;-47
2022/06/24 12:11:18;;;;;;;;;3.67;3.67;19.70;99.90;;;;;;4924150;28;9853;-46
2022/06/24 12:14:04;;;;;;;;;2.00;2.00;19.70;99.90;;;;;;4925690;28;9677;-49
2022/06/24 12:16:59;;;;;;;;;3.00;2.00;19.70;99.90;;;;;;4928207;28;9660;-48
2022/06/24 12:19:33;;;;;;;;;3.00;3.00;19.70;99.90;;;;;;4926696;28;10198;-47
2022/06/24 12:22:14;;;;;;;;;2.00;2.00;19.70;99.90;;;;;;4924041;28;9734;-51
2022/06/24 12:24:58;;;;;;;;;4.50;3.50;19.70;99.90;;;;;;4926667;28;9647;-47
2022/06/24 12:27:37;;;;;;;;;3.00;3.00;19.70;99.90;;;;;;4929276;28;9543;-49
2022/06/24 12:30:19;;;;;;;;;1.00;1.00;19.60;99.90;;;;;;4923406;28;9770;-46
2022/06/24 12:33:00;;;;;;;;;3.00;3.00;19.60;99.90;;;;;;4923782;28;9603;-46
2022/06/24 12:35:37;;;;;;;;;1.50;1.50;19.60;99.90;;;;;;4925563;28;9720;-52
2022/06/24 12:38:19;;;;;;;;;2.00;2.00;19.50;99.90;;;;;;4925641;28;9711;-50
2022/06/24 12:40:50;;;;;;;;;3.00;3.00;19.40;99.90;;;;;;4921920;28;9700;-48
2022/06/24 12:43:25;;;;;;;;;3.25;3.25;19.40;99.90;;;;;;4924853;28;9942;-48
2022/06/24 12:45:57;;;;;;;;;2.00;2.00;19.40;99.90;;;;;;4922133;28;9863;-51
2022/06/24 12:51:23;;;;;;;;;2.00;2.00;19.40;99.90;;;;;;4923328;28;9685;-48
2022/06/24 12:53:54;;;;;;;;;2.00;2.00;19.40;99.90;;;;;;4925595;28;9712;-46
2022/06/24 12:56:25;;;;;;;;;3.00;3.00;19.30;99.90;;;;;;4929115;28;10088;-50
2022/06/24 12:58:56;;;;;;;;;1.50;1.50;19.30;99.90;;;;;;4928433;28;9960;-48
2022/06/24 13:01:30;;;;;;;;;1.00;1.00;19.30;99.90;;;;;;4922083;28;9908;-51
2022/06/24 13:04:00;;;;;;;;;4.00;2.25;19.30;99.90;;;;;;4927494;28;9952;-48
2022/06/24 13:06:30;;;;;;;;;2.00;2.00;19.30;99.90;;;;;;4927918;28;10125;-50
2022/06/24 13:09:01;;;;;;;;;0.75;0.75;19.30;99.90;;;;;;4925332;28;10942;-50
2022/06/24 13:11:32;;;;;;;;;2.75;2.75;19.20;99.90;;;;;;4931481;28;10094;-46
2022/06/24 13:14:05;;;;;;;;;1.75;1.00;19.20;99.90;;;;;;4926551;28;10109;-48
2022/06/24 13:16:37;;;;;;;;;1.50;1.50;19.20;99.90;;;;;;4924876;28;10036;-46
2022/06/24 13:19:07;;;;;;;;;2.50;2.50;19.20;99.90;;;;;;4927036;28;10380;-47
2022/06/24 13:21:37;;;;;;;;;1.75;1.75;19.10;99.90;;;;;;4925682;28;10271;-50
2022/06/24 13:24:07;;;;;;;;;1.25;1.25;19.10;99.90;;;;;;4927909;28;10257;-49
2022/06/24 13:26:37;;;;;;;;;1.00;1.00;19.10;99.90;;;;;;4929042;28;10218;-49
2022/06/24 13:29:08;;;;;;;;;2.50;2.50;19.00;99.90;;;;;;4929809;28;10238;-45
2022/06/24 13:31:38;;;;;;;;;1.25;1.25;19.00;99.90;;;;;;4926974;28;10095;-46
2022/06/24 13:34:08;;;;;;;;;1.25;1.25;19.10;99.90;;;;;;4921828;28;10276;-49
2022/06/24 13:36:39;;;;;;;;;2.00;2.00;19.10;99.90;;;;;;4928354;28;10411;-45
2022/06/24 13:39:09;;;;;;;;;2.00;2.00;19.10;99.90;;;;;;4924853;28;10379;-46
2022/06/24 13:41:39;;;;;;;;;2.75;2.75;19.10;99.90;;;;;;4923704;28;10343;-50
2022/06/24 13:44:11;;;;;;;;;2.00;2.00;19.10;99.90;;;;;;4929032;28;10507;-49
2022/06/24 13:46:42;;;;;;;;;0.00;0.00;19.10;99.90;;;;;;4922491;28;10284;-46
2022/06/24 13:49:11;;;;;;;;;4.50;2.00;19.10;99.90;;;;;;4924029;28;10174;-47
2022/06/24 13:51:42;;;;;;;;;3.50;2.00;19.10;99.90;;;;;;4928799;28;10266;-47
2022/06/24 13:54:11;;;;;;;;;3.25;2.75;19.10;99.90;;;;;;4925168;28;10292;-50
2022/06/24 13:56:43;;;;;;;;;3.00;3.00;19.20;99.90;;;;;;4925845;28;10232;-49
2022/06/24 13:59:16;;;;;;;;;4.75;4.75;19.20;99.90;;;;;;4924002;28;10881;-49
2022/06/24 14:01:47;;;;;;;;;3.75;3.75;19.10;99.90;;;;;;4923962;28;10033;-49
2022/06/24 14:04:37;;;;;;;;;3.00;3.00;19.10;99.90;;;;;;4927562;28;10034;-45
2022/06/24 14:07:08;;;;;;;;;2.50;2.50;19.10;99.90;;;;;;4925031;28;10055;-45
2022/06/24 14:09:38;;;;;;;;;3.50;3.50;19.10;99.90;;;;;;4923206;28;9960;-45
2022/06/24 14:12:10;;;;;;;;;3.00;3.00;19.10;99.90;;;;;;4924163;28;10055;-45
2022/06/24 14:14:42;;;;;;;;;1.00;1.00;19.10;99.90;;;;;;4925885;28;10637;-46
2022/06/24 14:17:12;;;;;;;;;3.25;3.25;19.10;99.90;;;;;;4925130;28;9765;-45
2022/06/24 14:20:01;;;;;;;;;3.00;3.00;19.20;99.90;;;;;;4923321;28;9994;-45
2022/06/24 14:22:31;;;;;;;;;3.75;3.75;19.20;99.90;;;;;;4921473;28;9778;-49
2022/06/24 14:25:02;;;;;;;;;2.00;2.00;19.20;99.90;;;;;;4923410;28;9718;-46
2022/06/24 14:27:32;;;;;;;;;4.25;3.25;19.20;99.90;;;;;;4923934;28;9619;-50
2022/06/24 14:30:04;;;;;;;;;3.33;3.33;19.20;99.90;;;;;;4924692;28;10439;-48
2022/06/24 14:32:34;;;;;;;;;2.25;2.25;19.30;99.90;;;;;;4923296;28;10346;-47
2022/06/24 14:35:04;;;;;;;;;3.00;3.00;19.30;99.90;;;;;;4930353;28;9627;-46
2022/06/24 14:40:24;;;;;;;;;3.33;3.33;19.30;99.90;;;;;;4922208;28;9840;-47
2022/06/24 14:43:15;;;;;;;;;3.00;3.00;19.40;99.90;;;;;;4929959;28;9641;-47
2022/06/24 14:45:46;;;;;;;;;2.67;2.67;19.40;99.90;;;;;;4927658;28;9562;-49
2022/06/24 14:48:17;;;;;;;;;3.00;3.00;19.40;99.90;;;;;;4923536;28;9543;-48
2022/06/24 14:50:46;;;;;;;;;3.00;3.00;19.40;99.90;;;;;;4925951;28;9501;-48
2022/06/24 14:53:18;;;;;;;;;4.50;4.00;19.50;99.90;;;;;;4920869;28;9599;-46
2022/06/24 14:55:49;;;;;;;;;3.00;3.00;19.50;99.90;;;;;;4924306;28;9552;-46
2022/06/24 14:58:21;;;;;;;;;3.00;3.00;19.50;99.90;;;;;;4923805;28;9649;-46
2022/06/24 15:00:56;;;;;;;;;4.00;4.00;19.60;99.90;;;;;;4922287;28;9528;-46
2022/06/24 15:03:29;;;;;;;;;4.00;4.00;19.60;99.90;;;;;;4923298;28;9398;-49
2022/06/24 15:05:59;;;;;;;;;4.67;4.00;19.60;99.90;;;;;;4922632;28;9478;-47
2022/06/24 15:08:30;;;;;;;;;3.67;3.67;19.70;99.90;;;;;;4922047;28;9518;-50
2022/06/24 15:11:01;;;;;;;;;3.00;3.00;19.70;99.90;;;;;;4920837;28;9388;-45
2022/06/24 15:13:31;;;;;;;;;4.00;4.00;19.80;99.90;;;;;;4922584;28;9345;-46
2022/06/24 15:16:02;;;;;;;;;5.00;3.00;19.80;99.90;;;;;;4922265;28;9985;-46
2022/06/24 15:18:33;;;;;;;;;3.00;3.00;19.80;99.90;;;;;;4922424;28;9235;-48
2022/06/24 15:21:03;;;;;;;;;3.00;3.00;19.90;99.90;;;;;;4925656;28;9936;-46
2022/06/24 15:23:42;;;;;;;;;5.00;4.67;19.90;99.90;;;;;;4924519;28;9103;-46
2022/06/24 15:26:12;;;;;;;;;2.67;2.67;20.00;99.90;;;;;;4922502;28;9386;-47
2022/06/24 15:28:43;;;;;;;;;4.67;4.67;20.00;99.90;;;;;;4924309;28;10035;-48
2022/06/24 15:31:16;;;;;;;;;3.00;3.00;20.10;99.90;;;;;;4935670;28;9261;-47
2022/06/24 15:33:47;;;;;;;;;4.00;4.00;20.10;99.90;;;;;;4923957;28;9241;-47
2022/06/24 15:36:19;;;;;;;;;4.00;4.00;20.20;99.90;;;;;;4924040;28;9171;-48
2022/06/24 15:38:50;;;;;;;;;3.00;3.00;20.20;99.90;;;;;;4920735;28;9207;-49
2022/06/24 15:41:23;;;;;;;;;4.00;2.00;20.20;99.90;;;;;;4925460;28;9087;-55
2022/06/24 15:43:58;;;;;;;;;4.00;4.00;20.30;99.90;;;;;;4923784;28;9104;-47
2022/06/24 15:46:28;;;;;;;;;2.50;2.50;20.30;99.90;;;;;;4923954;28;9073;-49
2022/06/24 15:48:59;;;;;;;;;3.00;3.00;20.40;99.90;;;;;;4925939;28;8871;-46
2022/06/24 15:51:29;;;;;;;;;3.00;3.00;20.40;99.90;;;;;;4919780;28;9744;-47
2022/06/24 15:53:59;;;;;;;;;4.00;4.00;20.50;99.90;;;;;;4922493;28;8935;-49
2022/06/24 15:56:30;;;;;;;;;4.33;3.33;20.50;99.90;;;;;;4921274;28;8959;-46
2022/06/24 15:59:00;;;;;;;;;3.50;3.50;20.50;99.90;;;;;;4923663;28;8941;-49
2022/06/24 16:01:31;;;;;;;;;4.00;4.00;20.60;99.90;;;;;;4921129;28;8831;-48
2022/06/24 16:04:03;;;;;;;;;3.33;3.00;20.60;99.90;;;;;;4921987;28;8851;-45
2022/06/24 16:06:33;;;;;;;;;4.00;4.00;20.60;99.90;;;;;;4923308;28;9041;-46
2022/06/24 16:09:04;;;;;;;;;5.00;3.50;20.60;99.90;;;;;;4922966;28;8988;-46
2022/06/24 16:11:33;;;;;;;;;4.67;3.33;20.70;99.90;;;;;;4923147;28;8844;-49
2022/06/24 16:14:03;;;;;;;;;3.00;3.00;20.70;99.90;;;;;;4923398;28;8943;-45
2022/06/24 16:16:34;;;;;;;;;5.67;3.33;20.80;99.90;;;;;;4924298;28;8875;-51
2022/06/24 16:19:04;;;;;;;;;2.00;2.00;20.80;99.90;;;;;;4931041;28;8942;-46
2022/06/24 16:21:34;;;;;;;;;3.00;3.00;20.80;99.90;;;;;;4917657;28;8852;-48
2022/06/24 16:24:07;;;;;;;;;3.00;3.00;20.90;99.90;;;;;;4922938;28;8853;-46
2022/06/24 16:29:44;;;;;;;;;4.75;4.75;20.90;99.90;;;;;;4924481;28;8848;-48
2022/06/24 16:32:14;;;;;;;;;3.00;3.00;21.00;99.90;;;;;;4919409;28;8863;-47
2022/06/24 16:34:44;;;;;;;;;2.00;2.00;21.00;99.90;;;;;;4921562;28;8852;-51
2022/06/24 16:37:15;;;;;;;;;2.25;2.25;21.10;99.90;;;;;;4920889;28;8855;-50
2022/06/24 16:39:44;;;;;;;;;2.00;2.00;21.10;99.90;;;;;;4921800;28;8882;-46
2022/06/24 16:42:14;;;;;;;;;2.00;2.00;21.10;99.90;;;;;;4925110;28;9584;-46
2022/06/24 16:44:44;;;;;;;;;2.75;2.50;21.20;99.90;;;;;;4926448;28;8879;-46
2022/06/24 16:47:19;;;;;;;;;3.25;3.25;21.20;99.90;;;;;;4927752;28;8886;-51
2022/06/24 16:49:49;;;;;;;;;2.25;2.25;21.20;99.90;;;;;;4926198;28;8875;-49
2022/06/24 16:52:20;;;;;;;;;3.25;3.25;21.20;99.90;;;;;;4925984;28;8874;-50
2022/06/24 16:54:50;;;;;;;;;3.00;3.00;21.20;99.90;;;;;;4924008;28;8875;-46
2022/06/24 16:57:21;;;;;;;;;3.00;3.00;21.30;99.90;;;;;;4926346;28;8883;-45
2022/06/24 16:59:51;;;;;;;;;4.00;3.00;21.30;99.90;;;;;;4926576;28;8994;-47
2022/06/24 17:02:22;;;;;;;;;3.75;3.75;21.30;99.90;;;;;;4925737;28;8945;-50
2022/06/24 17:04:53;;;;;;;;;3.25;3.25;21.30;99.90;;;;;;4927764;28;8861;-50
2022/06/24 17:07:23;;;;;;;;;3.25;3.25;21.40;99.90;;;;;;4933898;28;8848;-50
2022/06/24 17:09:53;;;;;;;;;4.75;3.00;21.40;99.90;;;;;;4929736;28;8855;-47
2022/06/24 17:12:25;;;;;;;;;2.50;2.50;21.50;99.90;;;;;;4931681;28;8859;-51
2022/06/24 17:14:55;;;;;;;;;4.00;4.00;21.40;99.90;;;;;;4927941;28;11002;-48
2022/06/24 17:17:24;;;;;;;;;2.75;2.75;21.50;99.90;;;;;;4923745;28;8894;-49